sensor_id;sensor_type;location;lat;lon;timestamp;temperature;humidity
25410;DHT22;13339;50.840;4.346;2022-08-25T00:01:33;25.70;99.90
25410;DHT22;13339;50.840;4.346;2022-08-25T00:04:00;25.60;99.90
25410;DHT22;13339;50.840;4.346;2022-08-25T00:06:26;25.50;99.90
25410;DHT22;13339;50.840;4.346;2022-08-25T00:08:52;25.40;99.90
25410;DHT22;13339;50.840;4.346;2022-08-25T00:11:22;25.50;99.90
25410;DHT22;13339;50.840;4.346;2022-08-25T00:13:52;25.50;99.90
25410;DHT22;13339;50.840;4.346;2022-08-25T00:16:20;25.50;99.90
25410;DHT22;13339;50.840;4.346;2022-08-25T00:18:48;25.60;99.90
25410;DHT22;13339;50.840;4.346;2022-08-25T00:21:15;25.70;99.90
25410;DHT22;13339;50.840;4.346;2022-08-25T00:23:42;25.80;99.90
25410;DHT22;13339;50.840;4.346;2022-08-25T00:26:09;25.80;99.90
25410;DHT22;13339;50.840;4.346;2022-08-25T00:28:35;25.90;99.90
25410;DHT22;13339;50.840;4.346;2022-08-25T00:31:02;25.80;99.90
25410;DHT22;13339;50.840;4.346;2022-08-25T00:33:28;25.70;99.90
25410;DHT22;13339;50.840;4.346;2022-08-25T00:35:56;25.60;99.90
25410;DHT22;13339;50.840;4.346;2022-08-25T00:38:22;25.60;99.90
25410;DHT22;13339;50.840;4.346;2022-08-25T00:40:48;25.50;99.90
25410;DHT22;13339;50.840;4.346;2022-08-25T00:43:56;25.50;99.90
25410;DHT22;13339;50.840;4.346;2022-08-25T00:46:35;25.40;99.90
25410;DHT22;13339;50.840;4.346;2022-08-25T00:49:05;25.40;99.90
25410;DHT22;13339;50.840;4.346;2022-08-25T00:51:44;25.50;99.90
25410;DHT22;13339;50.840;4.346;2022-08-25T00:54:27;25.60;99.90
25410;DHT22;13339;50.840;4.346;2022-08-25T00:56:54;25.60;99.90
25410;DHT22;13339;50.840;4.346;2022-08-25T00:59:21;25.60;99.90
25410;DHT22;13339;50.840;4.346;2022-08-25T01:01:49;25.70;99.90
25410;DHT22;13339;50.840;4.346;2022-08-25T01:04:16;25.60;99.90
25410;DHT22;13339;50.840;4.346;2022-08-25T01:06:42;25.50;99.90
25410;DHT22;13339;50.840;4.346;2022-08-25T01:09:09;25.50;99.90
25410;DHT22;13339;50.840;4.346;2022-08-25T01:11:36;25.60;99.90
25410;DHT22;13339;50.840;4.346;2022-08-25T01:14:02;25.50;99.90
25410;DHT22;13339;50.840;4.346;2022-08-25T01:16:33;25.50;99.90
25410;DHT22;13339;50.840;4.346;2022-08-25T01:18:59;25.60;99.90
25410;DHT22;13339;50.840;4.346;2022-08-25T01:21:27;25.60;99.90
25410;DHT22;13339;50.840;4.346;2022-08-25T01:23:54;25.70;99.90
25410;DHT22;13339;50.840;4.346;2022-08-25T01:26:25;25.70;99.90
25410;DHT22;13339;50.840;4.346;2022-08-25T01:28:52;25.70;99.90
25410;DHT22;13339;50.840;4.346;2022-08-25T01:31:37;25.70;99.90
25410;DHT22;13339;50.840;4.346;2022-08-25T01:34:05;25.70;99.90
25410;DHT22;13339;50.840;4.346;2022-08-25T01:36:32;25.60;99.90
25410;DHT22;13339;50.840;4.346;2022-08-25T01:38:58;25.50;99.90
25410;DHT22;13339;50.840;4.346;2022-08-25T01:44:02;25.50;99.90
25410;DHT22;13339;50.840;4.346;2022-08-25T01:46:31;25.50;99.90
25410;DHT22;13339;50.840;4.346;2022-08-25T01:48:57;25.60;99.90
25410;DHT22;13339;50.840;4.346;2022-08-25T01:51:24;25.60;99.90
25410;DHT22;13339;50.840;4.346;2022-08-25T01:53:52;25.70;99.90
25410;DHT22;13339;50.840;4.346;2022-08-25T01:56:18;25.70;99.90
25410;DHT22;13339;50.840;4.346;2022-08-25T01:58:46;25.60;99.90
25410;DHT22;13339;50.840;4.346;2022-08-25T02:01:20;25.60;99.90
25410;DHT22;13339;50.840;4.346;2022-08-25T02:03:48;25.60;99.90
25410;DHT22;13339;50.840;4.346;2022-08-25T02:06:21;25.70;99.90
25410;DHT22;13339;50.840;4.346;2022-08-25T02:08:52;25.70;99.90
25410;DHT22;13339;50.840;4.346;2022-08-25T02:11:19;25.60;99.90
25410;DHT22;13339;50.840;4.346;2022-08-25T02:13:46;25.60;99.90
25410;DHT22;13339;50.840;4.346;2022-08-25T02:16:17;25.50;99.90
25410;DHT22;13339;50.840;4.346;2022-08-25T02:18:45;25.50;99.90
25410;DHT22;13339;50.840;4.346;2022-08-25T02:21:12;25.50;99.90
25410;DHT22;13339;50.840;4.346;2022-08-25T02:23:39;25.50;99.90
25410;DHT22;13339;50.840;4.346;2022-08-25T02:26:04;25.50;99.90
25410;DHT22;13339;50.840;4.346;2022-08-25T02:28:30;25.50;99.90
25410;DHT22;13339;50.840;4.346;2022-08-25T02:30:55;25.40;99.90
25410;DHT22;13339;50.840;4.346;2022-08-25T02:33:21;25.40;99.90
25410;DHT22;13339;50.840;4.346;2022-08-25T02:35:47;25.40;99.90
25410;DHT22;13339;50.840;4.346;2022-08-25T02:38:12;25.40;99.90
25410;DHT22;13339;50.840;4.346;2022-08-25T02:40:38;25.50;99.90
25410;DHT22;13339;50.840;4.346;2022-08-25T02:43:04;25.50;99.90
25410;DHT22;13339;50.840;4.346;2022-08-25T02:45:30;25.50;99.90
25410;DHT22;13339;50.840;4.346;2022-08-25T02:47:56;25.40;99.90
25410;DHT22;13339;50.840;4.346;2022-08-25T02:50:22;25.40;99.90
25410;DHT22;13339;50.840;4.346;2022-08-25T02:52:47;25.40;99.90
25410;DHT22;13339;50.840;4.346;2022-08-25T02:55:15;25.40;99.90
25410;DHT22;13339;50.840;4.346;2022-08-25T02:57:41;25.40;99.90
25410;DHT22;13339;50.840;4.346;2022-08-25T03:00:09;25.40;99.90
25410;DHT22;13339;50.840;4.346;2022-08-25T03:02:36;25.40;99.90
25410;DHT22;13339;50.840;4.346;2022-08-25T03:05:02;25.40;99.90
25410;DHT22;13339;50.840;4.346;2022-08-25T03:07:28;25.30;99.90
25410;DHT22;13339;50.840;4.346;2022-08-25T03:09:54;25.40;99.90
25410;DHT22;13339;50.840;4.346;2022-08-25T03:12:20;25.20;99.90
25410;DHT22;13339;50.840;4.346;2022-08-25T03:14:47;25.20;99.90
25410;DHT22;13339;50.840;4.346;2022-08-25T03:17:13;25.20;99.90
25410;DHT22;13339;50.840;4.346;2022-08-25T03:19:39;25.20;99.90
25410;DHT22;13339;50.840;4.346;2022-08-25T03:22:04;25.20;99.90
25410;DHT22;13339;50.840;4.346;2022-08-25T03:24:31;25.10;99.90
25410;DHT22;13339;50.840;4.346;2022-08-25T03:26:56;25.10;99.90
25410;DHT22;13339;50.840;4.346;2022-08-25T03:29:29;25.10;99.90
25410;DHT22;13339;50.840;4.346;2022-08-25T03:31:56;25.00;99.90
25410;DHT22;13339;50.840;4.346;2022-08-25T03:34:25;25.00;99.90
25410;DHT22;13339;50.840;4.346;2022-08-25T03:36:53;25.00;99.90
25410;DHT22;13339;50.840;4.346;2022-08-25T03:39:21;25.00;99.90
25410;DHT22;13339;50.840;4.346;2022-08-25T03:41:47;25.00;99.90
25410;DHT22;13339;50.840;4.346;2022-08-25T03:44:13;25.00;99.90
25410;DHT22;13339;50.840;4.346;2022-08-25T03:46:43;25.00;99.90
25410;DHT22;13339;50.840;4.346;2022-08-25T03:49:11;25.00;99.90
25410;DHT22;13339;50.840;4.346;2022-08-25T03:51:43;24.90;99.90
25410;DHT22;13339;50.840;4.346;2022-08-25T03:54:10;25.00;99.90
25410;DHT22;13339;50.840;4.346;2022-08-25T03:56:36;25.00;99.90
25410;DHT22;13339;50.840;4.346;2022-08-25T03:59:02;25.00;99.90
25410;DHT22;13339;50.840;4.346;2022-08-25T04:01:29;25.00;99.90
25410;DHT22;13339;50.840;4.346;2022-08-25T04:03:55;25.00;99.90
25410;DHT22;13339;50.840;4.346;2022-08-25T04:06:21;25.00;99.90
25410;DHT22;13339;50.840;4.346;2022-08-25T04:08:47;25.00;99.90
25410;DHT22;13339;50.840;4.346;2022-08-25T04:11:15;25.00;99.90
25410;DHT22;13339;50.840;4.346;2022-08-25T04:13:42;24.90;99.90
25410;DHT22;13339;50.840;4.346;2022-08-25T04:16:15;24.90;99.90
25410;DHT22;13339;50.840;4.346;2022-08-25T04:18:43;24.90;99.90
25410;DHT22;13339;50.840;4.346;2022-08-25T04:21:10;24.90;99.90
25410;DHT22;13339;50.840;4.346;2022-08-25T04:23:40;24.80;99.90
25410;DHT22;13339;50.840;4.346;2022-08-25T04:26:19;24.80;99.90
25410;DHT22;13339;50.840;4.346;2022-08-25T04:28:46;24.80;99.90
25410;DHT22;13339;50.840;4.346;2022-08-25T04:31:13;24.70;99.90
25410;DHT22;13339;50.840;4.346;2022-08-25T04:33:40;24.70;99.90
25410;DHT22;13339;50.840;4.346;2022-08-25T04:36:07;24.60;99.90
25410;DHT22;13339;50.840;4.346;2022-08-25T04:38:34;24.60;99.90
25410;DHT22;13339;50.840;4.346;2022-08-25T04:41:01;24.60;99.90
25410;DHT22;13339;50.840;4.346;2022-08-25T04:43:31;24.50;99.90
25410;DHT22;13339;50.840;4.346;2022-08-25T04:45:57;24.50;99.90
25410;DHT22;13339;50.840;4.346;2022-08-25T04:48:24;24.50;99.90
25410;DHT22;13339;50.840;4.346;2022-08-25T04:50:50;24.60;99.90
25410;DHT22;13339;50.840;4.346;2022-08-25T04:53:16;24.60;99.90
25410;DHT22;13339;50.840;4.346;2022-08-25T04:55:47;24.60;99.90
25410;DHT22;13339;50.840;4.346;2022-08-25T04:58:14;24.60;99.90
25410;DHT22;13339;50.840;4.346;2022-08-25T05:00:40;24.60;99.90
25410;DHT22;13339;50.840;4.346;2022-08-25T05:03:07;24.60;99.90
25410;DHT22;13339;50.840;4.346;2022-08-25T05:05:35;24.70;99.90
25410;DHT22;13339;50.840;4.346;2022-08-25T05:08:01;24.70;99.90
25410;DHT22;13339;50.840;4.346;2022-08-25T05:10:27;24.60;99.90
25410;DHT22;13339;50.840;4.346;2022-08-25T05:12:53;24.60;99.90
25410;DHT22;13339;50.840;4.346;2022-08-25T05:15:19;24.70;99.90
25410;DHT22;13339;50.840;4.346;2022-08-25T05:18:03;24.70;99.90
25410;DHT22;13339;50.840;4.346;2022-08-25T05:20:30;24.80;99.90
25410;DHT22;13339;50.840;4.346;2022-08-25T05:22:56;24.90;99.90
25410;DHT22;13339;50.840;4.346;2022-08-25T05:25:22;24.90;99.90
25410;DHT22;13339;50.840;4.346;2022-08-25T05:27:48;24.90;99.90
25410;DHT22;13339;50.840;4.346;2022-08-25T05:30:14;24.90;99.90
25410;DHT22;13339;50.840;4.346;2022-08-25T05:32:40;25.00;99.90
25410;DHT22;13339;50.840;4.346;2022-08-25T05:35:06;25.00;99.90
25410;DHT22;13339;50.840;4.346;2022-08-25T05:37:33;24.90;99.90
25410;DHT22;13339;50.840;4.346;2022-08-25T05:39:59;24.90;99.90
25410;DHT22;13339;50.840;4.346;2022-08-25T05:42:25;24.90;99.90
25410;DHT22;13339;50.840;4.346;2022-08-25T05:44:53;25.00;99.90
25410;DHT22;13339;50.840;4.346;2022-08-25T05:47:19;25.10;99.90
25410;DHT22;13339;50.840;4.346;2022-08-25T05:49:45;25.10;99.90
25410;DHT22;13339;50.840;4.346;2022-08-25T05:52:11;25.30;99.90
25410;DHT22;13339;50.840;4.346;2022-08-25T05:54:37;25.40;99.90
25410;DHT22;13339;50.840;4.346;2022-08-25T05:57:04;25.50;99.90
25410;DHT22;13339;50.840;4.346;2022-08-25T05:59:30;25.70;99.90
25410;DHT22;13339;50.840;4.346;2022-08-25T06:01:56;25.70;99.90
25410;DHT22;13339;50.840;4.346;2022-08-25T06:04:40;25.80;99.90
25410;DHT22;13339;50.840;4.346;2022-08-25T06:07:06;25.70;99.90
25410;DHT22;13339;50.840;4.346;2022-08-25T06:09:32;25.60;99.90
25410;DHT22;13339;50.840;4.346;2022-08-25T06:11:57;25.70;99.90
25410;DHT22;13339;50.840;4.346;2022-08-25T06:14:23;25.90;99.90
25410;DHT22;13339;50.840;4.346;2022-08-25T06:16:49;26.00;99.90
25410;DHT22;13339;50.840;4.346;2022-08-25T06:19:16;26.10;99.90
25410;DHT22;13339;50.840;4.346;2022-08-25T06:21:42;26.40;99.90
25410;DHT22;13339;50.840;4.346;2022-08-25T06:24:08;26.40;99.90
25410;DHT22;13339;50.840;4.346;2022-08-25T06:26:35;26.40;99.90
25410;DHT22;13339;50.840;4.346;2022-08-25T06:29:02;26.40;99.90
25410;DHT22;13339;50.840;4.346;2022-08-25T06:31:28;26.50;99.90
25410;DHT22;13339;50.840;4.346;2022-08-25T06:33:53;26.60;99.90
25410;DHT22;13339;50.840;4.346;2022-08-25T06:36:19;26.70;99.90
25410;DHT22;13339;50.840;4.346;2022-08-25T06:38:45;26.70;99.90
25410;DHT22;13339;50.840;4.346;2022-08-25T06:41:11;26.80;99.90
25410;DHT22;13339;50.840;4.346;2022-08-25T06:43:39;26.80;99.90
25410;DHT22;13339;50.840;4.346;2022-08-25T06:46:17;26.90;99.90
25410;DHT22;13339;50.840;4.346;2022-08-25T06:48:43;27.10;99.90
25410;DHT22;13339;50.840;4.346;2022-08-25T06:51:11;27.10;99.90
25410;DHT22;13339;50.840;4.346;2022-08-25T06:53:36;27.10;99.90
25410;DHT22;13339;50.840;4.346;2022-08-25T06:56:03;27.20;99.90
25410;DHT22;13339;50.840;4.346;2022-08-25T06:58:29;27.30;99.90
25410;DHT22;13339;50.840;4.346;2022-08-25T07:00:54;27.30;99.90
25410;DHT22;13339;50.840;4.346;2022-08-25T07:03:20;27.30;99.90
25410;DHT22;13339;50.840;4.346;2022-08-25T07:05:53;27.50;99.90
25410;DHT22;13339;50.840;4.346;2022-08-25T07:08:19;27.60;99.90
25410;DHT22;13339;50.840;4.346;2022-08-25T07:10:46;27.80;99.90
25410;DHT22;13339;50.840;4.346;2022-08-25T07:13:12;27.80;99.90
25410;DHT22;13339;50.840;4.346;2022-08-25T07:15:39;27.90;99.90
25410;DHT22;13339;50.840;4.346;2022-08-25T07:18:05;28.00;99.90
25410;DHT22;13339;50.840;4.346;2022-08-25T07:20:33;28.00;99.90
25410;DHT22;13339;50.840;4.346;2022-08-25T07:22:59;28.00;99.90
25410;DHT22;13339;50.840;4.346;2022-08-25T07:25:24;28.10;99.90
25410;DHT22;13339;50.840;4.346;2022-08-25T07:27:50;28.20;99.90
25410;DHT22;13339;50.840;4.346;2022-08-25T07:30:16;28.10;99.90
25410;DHT22;13339;50.840;4.346;2022-08-25T07:32:42;28.20;99.90
25410;DHT22;13339;50.840;4.346;2022-08-25T07:35:08;28.20;99.90
25410;DHT22;13339;50.840;4.346;2022-08-25T07:37:49;28.20;99.90
25410;DHT22;13339;50.840;4.346;2022-08-25T07:40:21;28.30;99.90
25410;DHT22;13339;50.840;4.346;2022-08-25T07:42:52;28.40;99.90
25410;DHT22;13339;50.840;4.346;2022-08-25T07:45:20;28.50;99.90
25410;DHT22;13339;50.840;4.346;2022-08-25T07:47:49;28.50;99.90
25410;DHT22;13339;50.840;4.346;2022-08-25T07:50:18;28.60;99.90
25410;DHT22;13339;50.840;4.346;2022-08-25T07:52:44;28.60;99.90
25410;DHT22;13339;50.840;4.346;2022-08-25T07:55:10;28.70;99.90
25410;DHT22;13339;50.840;4.346;2022-08-25T07:57:39;28.70;99.90
25410;DHT22;13339;50.840;4.346;2022-08-25T08:00:05;28.80;99.90
25410;DHT22;13339;50.840;4.346;2022-08-25T08:02:32;28.90;99.90
25410;DHT22;13339;50.840;4.346;2022-08-25T08:04:58;28.80;99.90
25410;DHT22;13339;50.840;4.346;2022-08-25T08:07:25;28.90;99.90
25410;DHT22;13339;50.840;4.346;2022-08-25T08:09:52;28.90;99.90
25410;DHT22;13339;50.840;4.346;2022-08-25T08:12:18;28.90;99.90
25410;DHT22;13339;50.840;4.346;2022-08-25T08:14:44;28.90;99.90
25410;DHT22;13339;50.840;4.346;2022-08-25T08:17:10;28.90;99.90
25410;DHT22;13339;50.840;4.346;2022-08-25T08:19:36;28.90;99.90
25410;DHT22;13339;50.840;4.346;2022-08-25T08:22:04;29.00;99.90
25410;DHT22;13339;50.840;4.346;2022-08-25T08:24:31;28.90;99.90
25410;DHT22;13339;50.840;4.346;2022-08-25T08:27:08;29.00;99.90
25410;DHT22;13339;50.840;4.346;2022-08-25T08:29:35;29.10;99.90
25410;DHT22;13339;50.840;4.346;2022-08-25T08:32:05;29.20;99.90
25410;DHT22;13339;50.840;4.346;2022-08-25T08:34:31;29.30;99.70
25410;DHT22;13339;50.840;4.346;2022-08-25T08:36:57;29.40;99.50
25410;DHT22;13339;50.840;4.346;2022-08-25T08:39:24;29.50;99.30
25410;DHT22;13339;50.840;4.346;2022-08-25T08:42:06;29.50;99.40
25410;DHT22;13339;50.840;4.346;2022-08-25T08:55:43;29.80;99.30
25410;DHT22;13339;50.840;4.346;2022-08-25T08:58:38;29.80;99.30
25410;DHT22;13339;50.840;4.346;2022-08-25T09:01:05;29.90;99.90
25410;DHT22;13339;50.840;4.346;2022-08-25T09:03:39;29.90;99.60
25410;DHT22;13339;50.840;4.346;2022-08-25T09:06:21;29.90;98.90
25410;DHT22;13339;50.840;4.346;2022-08-25T09:08:47;29.90;99.30
25410;DHT22;13339;50.840;4.346;2022-08-25T09:14:07;30.00;99.10
25410;DHT22;13339;50.840;4.346;2022-08-25T09:16:43;30.10;99.00
25410;DHT22;13339;50.840;4.346;2022-08-25T09:19:32;30.20;99.00
25410;DHT22;13339;50.840;4.346;2022-08-25T09:27:17;30.60;97.60
25410;DHT22;13339;50.840;4.346;2022-08-25T09:30:00;30.60;97.70
25410;DHT22;13339;50.840;4.346;2022-08-25T09:32:30;30.60;97.50
25410;DHT22;13339;50.840;4.346;2022-08-25T09:34:57;30.80;97.40
25410;DHT22;13339;50.840;4.346;2022-08-25T09:37:23;30.90;97.50
25410;DHT22;13339;50.840;4.346;2022-08-25T09:39:49;30.90;97.30
25410;DHT22;13339;50.840;4.346;2022-08-25T09:42:17;31.10;97.10
25410;DHT22;13339;50.840;4.346;2022-08-25T09:44:44;31.20;96.60
25410;DHT22;13339;50.840;4.346;2022-08-25T09:47:24;31.30;95.50
25410;DHT22;13339;50.840;4.346;2022-08-25T09:49:59;31.40;96.00
25410;DHT22;13339;50.840;4.346;2022-08-25T09:54:59;31.60;95.20
25410;DHT22;13339;50.840;4.346;2022-08-25T09:58:01;31.70;94.10
25410;DHT22;13339;50.840;4.346;2022-08-25T10:00:30;31.80;94.20
25410;DHT22;13339;50.840;4.346;2022-08-25T10:05:47;32.10;94.80
25410;DHT22;13339;50.840;4.346;2022-08-25T10:08:32;32.20;94.70
25410;DHT22;13339;50.840;4.346;2022-08-25T10:11:01;32.30;94.80
25410;DHT22;13339;50.840;4.346;2022-08-25T10:16:24;32.40;93.60
25410;DHT22;13339;50.840;4.346;2022-08-25T10:24:34;32.70;92.30
25410;DHT22;13339;50.840;4.346;2022-08-25T10:40:58;33.10;91.90
25410;DHT22;13339;50.840;4.346;2022-08-25T10:44:06;33.20;91.90
25410;DHT22;13339;50.840;4.346;2022-08-25T10:50:12;33.50;91.20
25410;DHT22;13339;50.840;4.346;2022-08-25T10:56:05;33.70;90.50
25410;DHT22;13339;50.840;4.346;2022-08-25T10:58:55;33.80;90.10
25410;DHT22;13339;50.840;4.346;2022-08-25T11:03:59;33.90;90.00
25410;DHT22;13339;50.840;4.346;2022-08-25T11:06:48;33.90;90.30
25410;DHT22;13339;50.840;4.346;2022-08-25T11:09:22;34.00;89.10
25410;DHT22;13339;50.840;4.346;2022-08-25T11:14:22;34.00;89.40
25410;DHT22;13339;50.840;4.346;2022-08-25T11:19:31;34.00;89.00
25410;DHT22;13339;50.840;4.346;2022-08-25T11:22:18;34.10;89.40
25410;DHT22;13339;50.840;4.346;2022-08-25T11:30:09;34.50;90.30
25410;DHT22;13339;50.840;4.346;2022-08-25T11:32:37;34.50;89.90
25410;DHT22;13339;50.840;4.346;2022-08-25T11:35:07;34.60;89.40
25410;DHT22;13339;50.840;4.346;2022-08-25T11:51:02;34.80;88.40
25410;DHT22;13339;50.840;4.346;2022-08-25T11:53:42;34.70;88.50
25410;DHT22;13339;50.840;4.346;2022-08-25T11:56:38;34.70;87.70
25410;DHT22;13339;50.840;4.346;2022-08-25T11:59:06;34.80;87.80
25410;DHT22;13339;50.840;4.346;2022-08-25T12:04:36;34.70;88.60
25410;DHT22;13339;50.840;4.346;2022-08-25T12:18:36;35.40;87.50
25410;DHT22;13339;50.840;4.346;2022-08-25T12:26:26;35.10;86.70
25410;DHT22;13339;50.840;4.346;2022-08-25T12:34:31;34.60;87.90
25410;DHT22;13339;50.840;4.346;2022-08-25T12:37:23;34.40;87.60
25410;DHT22;13339;50.840;4.346;2022-08-25T12:42:28;34.50;87.50
25410;DHT22;13339;50.840;4.346;2022-08-25T12:45:31;34.30;88.00
25410;DHT22;13339;50.840;4.346;2022-08-25T12:51:04;34.20;88.70
25410;DHT22;13339;50.840;4.346;2022-08-25T12:53:47;34.30;88.90
25410;DHT22;13339;50.840;4.346;2022-08-25T12:56:36;34.30;87.80
25410;DHT22;13339;50.840;4.346;2022-08-25T12:59:18;34.20;87.60
25410;DHT22;13339;50.840;4.346;2022-08-25T13:07:53;34.30;88.80
25410;DHT22;13339;50.840;4.346;2022-08-25T13:13:05;34.30;88.20
25410;DHT22;13339;50.840;4.346;2022-08-25T13:15:46;34.30;88.50
25410;DHT22;13339;50.840;4.346;2022-08-25T13:18:25;34.20;88.90
25410;DHT22;13339;50.840;4.346;2022-08-25T13:21:03;34.30;88.60
25410;DHT22;13339;50.840;4.346;2022-08-25T13:23:34;34.30;88.90
25410;DHT22;13339;50.840;4.346;2022-08-25T13:26:00;34.20;88.90
25410;DHT22;13339;50.840;4.346;2022-08-25T13:28:30;34.30;88.60
25410;DHT22;13339;50.840;4.346;2022-08-25T13:31:04;34.30;89.00
25410;DHT22;13339;50.840;4.346;2022-08-25T13:33:31;34.30;89.20
25410;DHT22;13339;50.840;4.346;2022-08-25T13:35:58;34.40;88.20
25410;DHT22;13339;50.840;4.346;2022-08-25T13:38:44;34.40;88.60
25410;DHT22;13339;50.840;4.346;2022-08-25T13:41:15;34.40;89.20
25410;DHT22;13339;50.840;4.346;2022-08-25T13:43:41;34.20;88.70
25410;DHT22;13339;50.840;4.346;2022-08-25T13:46:07;34.20;89.40
25410;DHT22;13339;50.840;4.346;2022-08-25T13:48:38;34.30;89.40
25410;DHT22;13339;50.840;4.346;2022-08-25T13:51:25;34.40;89.10
25410;DHT22;13339;50.840;4.346;2022-08-25T13:53:58;34.40;88.20
25410;DHT22;13339;50.840;4.346;2022-08-25T13:56:30;34.40;87.90
25410;DHT22;13339;50.840;4.346;2022-08-25T13:58:59;34.50;88.30
25410;DHT22;13339;50.840;4.346;2022-08-25T14:01:28;34.50;88.10
25410;DHT22;13339;50.840;4.346;2022-08-25T14:03:57;34.30;91.80
25410;DHT22;13339;50.840;4.346;2022-08-25T14:06:41;33.90;94.70
25410;DHT22;13339;50.840;4.346;2022-08-25T14:09:13;33.60;95.80
25410;DHT22;13339;50.840;4.346;2022-08-25T14:11:46;33.40;95.80
25410;DHT22;13339;50.840;4.346;2022-08-25T14:14:33;33.40;96.20
25410;DHT22;13339;50.840;4.346;2022-08-25T14:17:05;33.20;96.10
25410;DHT22;13339;50.840;4.346;2022-08-25T14:19:33;33.10;96.20
25410;DHT22;13339;50.840;4.346;2022-08-25T14:22:00;32.90;96.50
25410;DHT22;13339;50.840;4.346;2022-08-25T14:24:33;32.50;96.70
25410;DHT22;13339;50.840;4.346;2022-08-25T14:26:59;32.50;96.90
25410;DHT22;13339;50.840;4.346;2022-08-25T14:29:25;32.30;97.10
25410;DHT22;13339;50.840;4.346;2022-08-25T14:31:50;32.20;97.50
25410;DHT22;13339;50.840;4.346;2022-08-25T14:34:33;32.20;97.80
25410;DHT22;13339;50.840;4.346;2022-08-25T14:37:00;32.00;98.20
25410;DHT22;13339;50.840;4.346;2022-08-25T14:39:27;31.60;98.90
25410;DHT22;13339;50.840;4.346;2022-08-25T14:41:53;31.50;98.70
25410;DHT22;13339;50.840;4.346;2022-08-25T14:44:19;31.40;98.70
25410;DHT22;13339;50.840;4.346;2022-08-25T14:46:49;31.40;98.60
25410;DHT22;13339;50.840;4.346;2022-08-25T14:49:18;31.50;98.40
25410;DHT22;13339;50.840;4.346;2022-08-25T14:51:45;31.70;98.00
25410;DHT22;13339;50.840;4.346;2022-08-25T14:54:12;31.60;98.10
25410;DHT22;13339;50.840;4.346;2022-08-25T14:56:39;31.60;97.30
25410;DHT22;13339;50.840;4.346;2022-08-25T14:59:05;31.60;96.60
25410;DHT22;13339;50.840;4.346;2022-08-25T15:01:31;31.60;97.00
25410;DHT22;13339;50.840;4.346;2022-08-25T15:04:05;31.70;97.00
25410;DHT22;13339;50.840;4.346;2022-08-25T15:06:34;31.80;96.90
25410;DHT22;13339;50.840;4.346;2022-08-25T15:09:00;31.80;96.70
25410;DHT22;13339;50.840;4.346;2022-08-25T15:11:33;31.80;96.50
25410;DHT22;13339;50.840;4.346;2022-08-25T15:13:59;31.90;98.40
25410;DHT22;13339;50.840;4.346;2022-08-25T15:16:28;31.90;98.60
25410;DHT22;13339;50.840;4.346;2022-08-25T15:18:55;31.80;99.40
25410;DHT22;13339;50.840;4.346;2022-08-25T15:21:21;31.60;99.90
25410;DHT22;13339;50.840;4.346;2022-08-25T15:23:47;31.60;99.80
25410;DHT22;13339;50.840;4.346;2022-08-25T15:26:13;31.40;99.80
25410;DHT22;13339;50.840;4.346;2022-08-25T15:28:44;31.40;99.90
25410;DHT22;13339;50.840;4.346;2022-08-25T15:31:12;31.30;99.90
25410;DHT22;13339;50.840;4.346;2022-08-25T15:33:38;31.30;99.90
25410;DHT22;13339;50.840;4.346;2022-08-25T15:36:12;31.30;99.90
25410;DHT22;13339;50.840;4.346;2022-08-25T15:38:40;31.20;99.90
25410;DHT22;13339;50.840;4.346;2022-08-25T15:41:07;31.10;99.90
25410;DHT22;13339;50.840;4.346;2022-08-25T15:43:33;31.00;99.90
25410;DHT22;13339;50.840;4.346;2022-08-25T15:45:59;30.90;99.90
25410;DHT22;13339;50.840;4.346;2022-08-25T15:48:25;30.90;99.90
25410;DHT22;13339;50.840;4.346;2022-08-25T15:50:55;31.00;99.90
25410;DHT22;13339;50.840;4.346;2022-08-25T15:53:21;31.10;99.90
25410;DHT22;13339;50.840;4.346;2022-08-25T15:55:47;31.00;99.90
25410;DHT22;13339;50.840;4.346;2022-08-25T15:58:14;30.90;99.90
25410;DHT22;13339;50.840;4.346;2022-08-25T16:00:39;30.70;99.90
25410;DHT22;13339;50.840;4.346;2022-08-25T16:03:06;30.50;99.90
25410;DHT22;13339;50.840;4.346;2022-08-25T16:05:34;30.20;99.90
25410;DHT22;13339;50.840;4.346;2022-08-25T16:08:00;30.20;99.90
25410;DHT22;13339;50.840;4.346;2022-08-25T16:10:25;30.20;99.90
25410;DHT22;13339;50.840;4.346;2022-08-25T16:12:51;30.10;99.90
25410;DHT22;13339;50.840;4.346;2022-08-25T16:15:17;29.90;99.90
25410;DHT22;13339;50.840;4.346;2022-08-25T16:17:42;29.80;99.90
25410;DHT22;13339;50.840;4.346;2022-08-25T16:20:08;29.70;99.90
25410;DHT22;13339;50.840;4.346;2022-08-25T16:22:34;29.50;99.90
25410;DHT22;13339;50.840;4.346;2022-08-25T16:25:00;29.40;99.90
25410;DHT22;13339;50.840;4.346;2022-08-25T16:27:27;29.40;99.90
25410;DHT22;13339;50.840;4.346;2022-08-25T16:29:52;29.20;99.90
25410;DHT22;13339;50.840;4.346;2022-08-25T16:32:18;29.10;99.90
25410;DHT22;13339;50.840;4.346;2022-08-25T16:34:45;29.20;99.90
25410;DHT22;13339;50.840;4.346;2022-08-25T16:37:11;29.20;99.90
25410;DHT22;13339;50.840;4.346;2022-08-25T16:39:37;29.30;99.90
25410;DHT22;13339;50.840;4.346;2022-08-25T16:42:08;29.20;99.90
25410;DHT22;13339;50.840;4.346;2022-08-25T16:44:34;29.10;99.90
25410;DHT22;13339;50.840;4.346;2022-08-25T16:46:59;28.90;99.90
25410;DHT22;13339;50.840;4.346;2022-08-25T16:49:25;28.70;99.90
25410;DHT22;13339;50.840;4.346;2022-08-25T16:51:51;28.70;99.90
25410;DHT22;13339;50.840;4.346;2022-08-25T16:54:17;28.80;99.90
25410;DHT22;13339;50.840;4.346;2022-08-25T16:57:01;28.90;99.90
25410;DHT22;13339;50.840;4.346;2022-08-25T16:59:27;28.90;99.90
25410;DHT22;13339;50.840;4.346;2022-08-25T17:01:53;28.90;99.90
25410;DHT22;13339;50.840;4.346;2022-08-25T17:04:19;28.70;99.90
25410;DHT22;13339;50.840;4.346;2022-08-25T17:06:45;28.70;99.90
25410;DHT22;13339;50.840;4.346;2022-08-25T17:09:12;28.60;99.90
25410;DHT22;13339;50.840;4.346;2022-08-25T17:11:44;28.60;99.90
25410;DHT22;13339;50.840;4.346;2022-08-25T17:14:15;28.50;99.90
25410;DHT22;13339;50.840;4.346;2022-08-25T17:16:42;28.30;99.90
25410;DHT22;13339;50.840;4.346;2022-08-25T17:19:10;28.10;99.90
25410;DHT22;13339;50.840;4.346;2022-08-25T17:21:39;27.90;99.90
25410;DHT22;13339;50.840;4.346;2022-08-25T17:24:05;27.80;99.90
25410;DHT22;13339;50.840;4.346;2022-08-25T17:26:32;27.50;99.90
25410;DHT22;13339;50.840;4.346;2022-08-25T17:28:59;27.50;99.90
25410;DHT22;13339;50.840;4.346;2022-08-25T17:31:26;27.50;99.90
25410;DHT22;13339;50.840;4.346;2022-08-25T17:33:51;27.50;99.90
25410;DHT22;13339;50.840;4.346;2022-08-25T17:36:17;27.40;99.90
25410;DHT22;13339;50.840;4.346;2022-08-25T17:38:43;27.30;99.90
25410;DHT22;13339;50.840;4.346;2022-08-25T17:41:09;27.30;99.90
25410;DHT22;13339;50.840;4.346;2022-08-25T17:43:38;27.30;99.90
25410;DHT22;13339;50.840;4.346;2022-08-25T17:46:05;27.30;99.90